createdAt,value
2023-04-12T00:02:06.579Z,5.77
2023-04-12T00:04:36.081Z,5.10
2023-04-12T00:07:06.041Z,5.27
2023-04-12T00:09:36.473Z,5.17
2023-04-12T00:12:06.734Z,6.63
2023-04-12T00:14:34.915Z,6.20
2023-04-12T00:17:03.099Z,6.03
2023-04-12T00:19:31.288Z,5.77
2023-04-12T00:21:59.643Z,8.20
2023-04-12T00:24:27.811Z,7.23
2023-04-12T00:26:56.230Z,6.73
2023-04-12T00:29:26.650Z,6.03
2023-04-12T00:31:54.886Z,12.10
2023-04-12T00:34:23.046Z,8.27
2023-04-12T00:36:51.547Z,7.33
2023-04-12T00:39:19.746Z,6.67
2023-04-12T00:41:47.897Z,6.93
2023-04-12T00:44:17.960Z,6.97
2023-04-12T00:46:48.290Z,7.33
2023-04-12T00:49:16.788Z,12.70
2023-04-12T00:51:45.062Z,11.17
2023-04-12T00:54:13.350Z,7.53
2023-04-12T00:56:44.912Z,7.63
2023-04-12T00:59:13.209Z,6.57
2023-04-12T01:01:42.122Z,11.63
2023-04-12T01:04:13.899Z,13.93
2023-04-12T01:06:46.860Z,9.20
2023-04-12T01:09:20.470Z,6.80
2023-04-12T01:11:53.180Z,11.00
2023-04-12T01:14:24.507Z,7.97
2023-04-12T01:16:55.665Z,8.43
2023-04-12T01:19:39.459Z,7.93
2023-04-12T01:22:14.052Z,11.53
2023-04-12T01:24:48.970Z,10.83
2023-04-12T01:27:36.490Z,10.67
2023-04-12T01:30:05.010Z,14.23
2023-04-12T01:32:34.471Z,9.87
2023-04-12T01:35:03.676Z,11.27
2023-04-12T01:37:32.395Z,11.10
2023-04-12T01:40:01.170Z,9.90
2023-04-12T01:42:29.488Z,16.70
2023-04-12T01:44:59.584Z,13.80
2023-04-12T01:47:28.225Z,11.33
2023-04-12T01:50:00.959Z,14.23
2023-04-12T01:52:32.442Z,10.70
2023-04-12T01:55:01.874Z,11.73
2023-04-12T01:57:30.765Z,9.70
2023-04-12T02:00:01.531Z,14.80
2023-04-12T02:02:30.455Z,11.73
2023-04-12T02:04:58.807Z,12.73
2023-04-12T02:07:28.152Z,11.37
2023-04-12T02:09:56.529Z,17.40
2023-04-12T02:12:24.715Z,23.23
2023-04-12T02:14:52.922Z,21.73
2023-04-12T02:17:22.588Z,15.90
2023-04-12T02:19:50.817Z,14.83
2023-04-12T02:22:18.975Z,21.60
2023-04-12T02:24:47.850Z,15.43
2023-04-12T02:27:18.761Z,17.90
2023-04-12T02:29:46.975Z,15.60
2023-04-12T02:32:15.681Z,17.07
2023-04-12T02:34:51.263Z,22.83
2023-04-12T02:37:21.856Z,25.20
2023-04-12T02:39:50.264Z,29.90
2023-04-12T02:42:18.425Z,33.47
2023-04-12T02:44:47.899Z,37.37
2023-04-12T02:47:16.098Z,33.23
2023-04-12T02:49:45.645Z,27.43
2023-04-12T02:52:14.288Z,31.73
2023-04-12T02:54:42.588Z,42.07
2023-04-12T02:57:11.540Z,33.23
2023-04-12T02:59:39.709Z,29.10
2023-04-12T03:02:07.935Z,27.33
2023-04-12T03:04:39.828Z,16.13
2023-04-12T03:07:09.395Z,27.77
2023-04-12T03:09:38.611Z,34.50
2023-04-12T03:12:07.095Z,39.00
2023-04-12T03:14:35.244Z,56.37
2023-04-12T03:17:03.472Z,60.07
2023-04-12T03:19:33.096Z,34.90
2023-04-12T03:22:01.611Z,46.93
2023-04-12T03:24:33.942Z,49.40
2023-04-12T03:27:03.596Z,47.87
2023-04-12T03:29:31.762Z,35.50
2023-04-12T03:32:00.430Z,42.70
2023-04-12T03:34:32.492Z,43.97
2023-04-12T03:37:00.792Z,57.70
2023-04-12T03:39:29.135Z,66.37
2023-04-12T03:41:58.683Z,45.10
2023-04-12T03:44:27.087Z,61.90
2023-04-12T03:46:55.380Z,62.37
2023-04-12T03:49:23.648Z,81.67
2023-04-12T03:51:52.426Z,92.37
2023-04-12T03:54:20.640Z,88.90
2023-04-12T03:56:48.770Z,69.10
2023-04-12T03:59:18.571Z,77.60
2023-04-12T04:01:47.637Z,68.77
2023-04-12T04:04:16.160Z,77.27
2023-04-12T04:06:44.446Z,77.13
2023-04-12T04:09:12.628Z,62.80
2023-04-12T04:11:41.391Z,77.60
2023-04-12T04:14:09.617Z,88.70
2023-04-12T04:16:39.194Z,79.07
2023-04-12T04:19:07.400Z,74.90
2023-04-12T04:21:35.580Z,68.63
2023-04-12T04:24:04.200Z,88.43
2023-04-12T04:26:33.591Z,82.47
2023-04-12T04:29:03.551Z,108.63
2023-04-12T04:31:34.592Z,130.43
2023-04-12T04:34:05.363Z,133.73
2023-04-12T04:36:35.045Z,126.17
2023-04-12T04:39:04.215Z,133.17
2023-04-12T04:41:34.394Z,153.20
2023-04-12T04:44:04.620Z,159.33
2023-04-12T04:46:32.929Z,164.40
2023-04-12T04:49:02.306Z,129.43
2023-04-12T04:51:31.874Z,117.17
2023-04-12T04:54:00.268Z,140.20
2023-04-12T04:56:28.619Z,136.97
2023-04-12T04:58:57.250Z,123.30
2023-04-12T05:01:28.661Z,130.43
2023-04-12T05:03:57.207Z,130.00
2023-04-12T05:06:25.742Z,117.53
2023-04-12T05:08:56.534Z,87.70
2023-04-12T05:11:24.946Z,86.93
2023-04-12T05:13:53.315Z,109.50
2023-04-12T05:16:21.514Z,107.27
2023-04-12T05:18:49.720Z,78.40
2023-04-12T05:21:17.880Z,88.93
2023-04-12T05:23:46.988Z,102.30
2023-04-12T05:26:16.658Z,97.40
2023-04-12T05:28:45.150Z,89.60
2023-04-12T05:31:13.316Z,66.50
2023-04-12T05:33:41.614Z,61.90
2023-04-12T05:36:10.049Z,48.93
2023-04-12T05:38:38.202Z,38.77
2023-04-12T05:41:06.686Z,40.60
2023-04-12T05:43:37.651Z,26.00
2023-04-12T05:46:07.718Z,25.80
2023-04-12T05:48:35.930Z,30.57
2023-04-12T05:51:04.978Z,19.20
2023-04-12T05:53:33.227Z,21.77
2023-04-12T05:56:01.840Z,15.10
2023-04-12T05:58:30.045Z,12.40
2023-04-12T06:00:59.562Z,12.43
2023-04-12T06:03:30.331Z,11.03
2023-04-12T06:05:58.855Z,10.53
2023-04-12T06:08:29.395Z,31.20
2023-04-12T06:10:57.610Z,11.90
2023-04-12T06:13:25.865Z,6.50
2023-04-12T06:15:54.083Z,5.07
2023-04-12T06:18:23.672Z,5.70
2023-04-12T06:20:51.844Z,6.33
2023-04-12T06:23:20.030Z,7.17
2023-04-12T06:25:49.090Z,5.30
2023-04-12T06:28:17.532Z,4.63
2023-04-12T06:30:45.763Z,4.97
2023-04-12T06:33:13.994Z,4.90
2023-04-12T06:35:43.572Z,4.40
2023-04-12T06:38:11.838Z,4.77
2023-04-12T06:40:40.027Z,5.33
2023-04-12T06:43:08.338Z,4.40
2023-04-12T06:45:36.522Z,4.67
2023-04-12T06:48:04.740Z,3.57
2023-04-12T06:50:32.968Z,3.70
2023-04-12T06:53:02.631Z,3.37
2023-04-12T06:55:30.826Z,3.47
2023-04-12T06:57:59.062Z,3.50
2023-04-12T07:00:27.351Z,3.33
2023-04-12T07:02:55.663Z,4.00
2023-04-12T07:05:24.278Z,2.93
2023-04-12T07:07:52.497Z,3.83
2023-04-12T07:10:22.162Z,4.90
2023-04-12T07:12:51.898Z,4.00
2023-04-12T07:15:20.725Z,2.90
2023-04-12T07:17:48.998Z,3.20
2023-04-12T07:20:17.483Z,3.30
2023-04-12T07:22:45.719Z,2.77
2023-04-12T07:25:14.008Z,3.00
2023-04-12T07:27:43.906Z,2.67
2023-04-12T07:30:12.635Z,2.60
2023-04-12T07:32:40.945Z,2.97
2023-04-12T07:35:09.724Z,3.37
2023-04-12T07:37:38.004Z,3.17
2023-04-12T07:40:06.934Z,3.33
2023-04-12T07:42:35.315Z,2.83
2023-04-12T07:45:04.994Z,3.33
2023-04-12T07:47:33.626Z,2.87
2023-04-12T07:50:01.961Z,3.00
2023-04-12T07:52:30.223Z,2.97
2023-04-12T07:54:58.612Z,3.10
2023-04-12T07:57:27.342Z,2.53
2023-04-12T07:59:56.848Z,2.97
2023-04-12T08:02:26.911Z,2.60
2023-04-12T08:04:55.622Z,2.93
2023-04-12T08:07:24.148Z,2.80
2023-04-12T08:09:52.462Z,2.60
2023-04-12T08:12:21.707Z,3.33
2023-04-12T08:14:49.977Z,3.10
2023-04-12T08:17:18.252Z,3.33
2023-04-12T08:19:47.901Z,3.67
2023-04-12T08:22:16.231Z,3.33
2023-04-12T08:24:44.459Z,3.00
2023-04-12T08:27:13.921Z,3.50
2023-04-12T08:29:42.169Z,3.70
2023-04-12T08:32:12.534Z,2.83
2023-04-12T08:34:40.975Z,3.43
2023-04-12T08:37:10.630Z,3.00
2023-04-12T08:39:38.884Z,2.73
2023-04-12T08:42:07.746Z,3.13
2023-04-12T08:44:37.827Z,3.13
2023-04-12T08:47:07.015Z,3.07
2023-04-12T08:49:36.121Z,4.10
2023-04-12T08:52:05.699Z,3.13
2023-04-12T08:54:35.780Z,3.43
2023-04-12T08:57:05.002Z,3.20
2023-04-12T08:59:33.864Z,2.87
2023-04-12T09:02:02.182Z,3.20
2023-04-12T09:04:30.775Z,2.73
2023-04-12T09:06:59.127Z,2.60
2023-04-12T09:09:42.348Z,2.50
2023-04-12T09:12:12.517Z,2.83
2023-04-12T09:14:43.864Z,3.10
2023-04-12T09:17:24.973Z,3.17
2023-04-12T09:19:53.490Z,2.80
2023-04-12T09:22:21.758Z,2.97
2023-04-12T09:24:53.059Z,3.43
2023-04-12T09:27:22.769Z,3.37
2023-04-12T09:29:52.850Z,3.30
2023-04-12T09:32:26.324Z,4.33
2023-04-12T09:34:57.856Z,3.03
2023-04-12T09:37:26.289Z,3.13
2023-04-12T09:40:02.184Z,3.20
2023-04-12T09:42:34.024Z,3.50
2023-04-12T09:45:03.548Z,3.07
2023-04-12T09:47:41.733Z,3.20
2023-04-12T09:50:10.485Z,3.20
2023-04-12T09:52:39.262Z,3.40
2023-04-12T09:55:10.640Z,2.97
2023-04-12T09:57:42.309Z,2.20
2023-04-12T10:00:14.166Z,2.67
2023-04-12T10:02:45.550Z,2.80
2023-04-12T10:05:15.812Z,3.23
2023-04-12T10:07:44.699Z,2.33
2023-04-12T10:10:13.764Z,2.40
2023-04-12T10:12:44.197Z,3.00
2023-04-12T10:15:15.212Z,2.17
2023-04-12T10:17:45.358Z,3.23
2023-04-12T10:20:14.001Z,2.83
2023-04-12T10:22:43.919Z,2.70
2023-04-12T10:25:13.740Z,2.40
2023-04-12T10:27:44.425Z,2.10
2023-04-12T10:30:22.405Z,2.27
2023-04-12T10:32:51.159Z,2.10
2023-04-12T10:35:19.399Z,2.20
2023-04-12T10:38:00.835Z,2.90
2023-04-12T10:40:29.368Z,2.50
2023-04-12T10:43:12.505Z,2.20
2023-04-12T10:45:42.551Z,1.60
2023-04-12T10:48:30.692Z,2.00
2023-04-12T10:51:14.166Z,2.13
2023-04-12T10:53:42.679Z,2.23
2023-04-12T10:56:25.751Z,2.17
2023-04-12T10:58:57.698Z,1.60
2023-04-12T11:01:28.188Z,1.97
2023-04-12T11:04:16.698Z,1.70
2023-04-12T11:06:49.343Z,1.80
2023-04-12T11:09:25.724Z,1.50
2023-04-12T11:11:57.977Z,1.40
2023-04-12T11:14:29.484Z,1.20
2023-04-12T11:17:16.896Z,1.20
2023-04-12T11:19:47.751Z,1.47
2023-04-12T11:22:16.867Z,0.90
2023-04-12T11:24:45.844Z,1.17
2023-04-12T11:27:14.175Z,1.50
2023-04-12T11:29:43.336Z,1.60
2023-04-12T11:32:13.875Z,1.30
2023-04-12T11:34:42.837Z,1.73
2023-04-12T11:37:12.538Z,1.87
2023-04-12T11:39:41.713Z,1.30
2023-04-12T11:42:15.618Z,1.43
2023-04-12T11:44:55.954Z,1.37
2023-04-12T11:47:25.655Z,1.70
2023-04-12T11:49:54.455Z,1.60
2023-04-12T11:52:24.422Z,1.30
2023-04-12T11:54:56.482Z,1.57
2023-04-12T11:57:24.741Z,1.80
2023-04-12T11:59:53.093Z,1.47
2023-04-12T12:02:24.514Z,1.60
2023-04-12T12:04:56.225Z,2.03
2023-04-12T12:07:26.401Z,1.80
2023-04-12T12:09:55.452Z,2.33
2023-04-12T12:12:25.440Z,1.67
2023-04-12T12:14:53.761Z,2.27
2023-04-12T12:17:22.062Z,1.60
2023-04-12T12:19:50.428Z,1.90
2023-04-12T12:22:19.392Z,2.07
2023-04-12T12:24:51.599Z,1.83
2023-04-12T12:27:21.071Z,2.13
2023-04-12T12:29:54.294Z,2.43
2023-04-12T12:32:23.625Z,1.70
2023-04-12T12:34:53.378Z,1.60
2023-04-12T12:37:22.851Z,1.97
2023-04-12T12:40:11.465Z,1.60
2023-04-12T12:42:47.339Z,1.70
2023-04-12T12:45:15.640Z,2.67
2023-04-12T12:47:47.863Z,1.60
2023-04-12T12:50:17.654Z,1.30
2023-04-12T12:52:46.681Z,1.10
2023-04-12T12:55:15.045Z,1.10
2023-04-12T12:57:44.421Z,1.00
2023-04-12T13:00:18.574Z,0.90
2023-04-12T13:02:48.564Z,0.70
2023-04-12T13:05:16.903Z,0.67
2023-04-12T13:07:45.601Z,0.60
2023-04-12T13:10:13.922Z,0.80
2023-04-12T13:12:42.187Z,0.70
2023-04-12T13:15:21.210Z,0.90
2023-04-12T13:17:53.542Z,1.00
2023-04-12T13:20:22.123Z,0.87
2023-04-12T13:22:51.491Z,1.00
2023-04-12T13:25:20.817Z,1.00
2023-04-12T13:27:49.507Z,1.00
2023-04-12T13:30:17.959Z,1.57
2023-04-12T13:32:46.301Z,1.30
2023-04-12T13:35:16.136Z,1.00
2023-04-12T13:37:44.389Z,1.03
2023-04-12T13:40:12.832Z,0.70
2023-04-12T13:42:41.512Z,0.83
2023-04-12T13:45:11.297Z,1.00
2023-04-12T13:47:39.953Z,0.73
2023-04-12T13:50:08.837Z,0.70
2023-04-12T13:52:38.442Z,0.70
2023-04-12T13:55:08.268Z,0.60
2023-04-12T13:57:36.834Z,0.67
2023-04-12T14:00:05.266Z,0.80
2023-04-12T14:02:33.638Z,0.80
2023-04-12T14:05:02.082Z,0.90
2023-04-12T14:07:30.435Z,0.80
2023-04-12T14:10:00.138Z,0.80
2023-04-12T14:12:28.366Z,0.97
2023-04-12T14:14:56.911Z,0.77
2023-04-12T14:17:25.306Z,0.60
2023-04-12T14:19:53.590Z,0.93
2023-04-12T14:22:21.821Z,1.10
2023-04-12T14:24:50.098Z,0.90
2023-04-12T14:27:19.742Z,1.27
2023-04-12T14:29:47.966Z,0.90
2023-04-12T14:32:16.436Z,1.27
2023-04-12T14:34:44.866Z,0.70
2023-04-12T14:37:13.129Z,1.27
2023-04-12T14:39:41.421Z,0.80
2023-04-12T14:42:10.011Z,0.93
2023-04-12T14:44:39.690Z,1.03
2023-04-12T14:47:07.964Z,1.03
2023-04-12T14:49:36.241Z,1.10
2023-04-12T14:52:04.569Z,1.27
2023-04-12T14:54:32.786Z,1.30
2023-04-12T14:57:01.362Z,1.60
2023-04-12T14:59:29.655Z,1.20
2023-04-12T15:01:59.860Z,1.40
2023-04-12T15:04:28.334Z,1.40
2023-04-12T15:06:56.592Z,1.00
2023-04-12T15:09:26.107Z,1.40
2023-04-12T15:12:00.640Z,1.50
2023-04-12T15:14:29.208Z,1.60
2023-04-12T15:16:58.861Z,1.27
2023-04-12T15:19:27.313Z,1.50
2023-04-12T15:21:56.403Z,1.30
2023-04-12T15:24:24.979Z,1.67
2023-04-12T15:26:53.655Z,1.90
2023-04-12T15:29:22.408Z,1.87
2023-04-12T15:31:51.750Z,2.20
2023-04-12T15:34:23.427Z,2.40
2023-04-12T15:36:51.923Z,2.63
2023-04-12T15:39:20.509Z,1.70
2023-04-12T15:41:48.882Z,1.87
2023-04-12T15:44:17.157Z,1.77
2023-04-12T15:46:56.038Z,1.60
2023-04-12T15:49:35.592Z,2.10
2023-04-12T15:52:04.695Z,2.10
2023-04-12T15:54:32.989Z,2.17
2023-04-12T15:57:02.584Z,2.10
2023-04-12T15:59:30.931Z,1.57
2023-04-12T16:01:59.236Z,1.70
2023-04-12T16:04:28.031Z,1.87
2023-04-12T16:07:02.314Z,2.03
2023-04-12T16:09:32.300Z,2.10
2023-04-12T16:12:00.519Z,1.90
2023-04-12T16:14:29.222Z,1.70
2023-04-12T16:16:58.413Z,1.90
2023-04-12T16:19:26.625Z,1.60
2023-04-12T16:21:54.950Z,1.57
2023-04-12T16:24:24.568Z,2.00
2023-04-12T16:26:52.962Z,1.50
2023-04-12T16:29:21.271Z,1.63
2023-04-12T16:31:49.564Z,1.43
2023-04-12T16:34:21.767Z,1.57
2023-04-12T16:36:51.266Z,1.47
2023-04-12T16:39:19.507Z,1.80
2023-04-12T16:41:49.162Z,1.70
2023-04-12T16:44:20.560Z,1.80
2023-04-12T16:46:48.912Z,1.70
2023-04-12T16:49:19.624Z,1.63
2023-04-12T16:51:48.099Z,1.80
2023-04-12T16:54:16.718Z,1.60
2023-04-12T16:56:44.964Z,2.20
2023-04-12T16:59:15.547Z,1.60
2023-04-12T17:01:44.175Z,1.50
2023-04-12T17:04:12.926Z,1.00
2023-04-12T17:06:42.726Z,1.37
2023-04-12T17:09:11.002Z,1.30
2023-04-12T17:11:39.285Z,1.60
2023-04-12T17:14:07.583Z,2.30
2023-04-12T17:16:37.506Z,1.30
2023-04-12T17:19:05.895Z,1.30
2023-04-12T17:21:41.120Z,1.40
2023-04-12T17:24:10.825Z,1.63
2023-04-12T17:26:40.238Z,1.60
2023-04-12T17:29:08.561Z,1.77
2023-04-12T17:31:39.300Z,1.53
2023-04-12T17:34:08.093Z,1.55
2023-04-12T17:36:36.404Z,1.50
2023-04-12T17:39:04.946Z,1.63
2023-04-12T17:41:33.135Z,1.30
2023-04-12T17:44:01.838Z,1.70
2023-04-12T17:46:30.099Z,1.20
2023-04-12T17:49:02.607Z,1.73
2023-04-12T17:51:31.564Z,1.40
2023-04-12T17:54:00.397Z,1.57
2023-04-12T17:56:28.748Z,1.57
2023-04-12T17:58:57.333Z,1.70
2023-04-12T18:01:25.788Z,1.90
2023-04-12T18:03:54.160Z,1.53
2023-04-12T18:06:24.480Z,1.53
2023-04-12T18:08:52.771Z,1.37
2023-04-12T18:11:21.010Z,1.60
2023-04-12T18:13:49.325Z,1.10
2023-04-12T18:16:17.616Z,1.83
2023-04-12T18:18:45.883Z,1.30
2023-04-12T18:21:14.735Z,1.70
2023-04-12T18:23:44.389Z,1.70
2023-04-12T18:26:12.889Z,1.70
2023-04-12T18:28:41.147Z,1.50
2023-04-12T18:31:09.479Z,1.60
2023-04-12T18:33:37.951Z,1.57
2023-04-12T18:36:06.592Z,1.43
2023-04-12T18:38:35.622Z,1.37
2023-04-12T18:41:06.761Z,1.50
2023-04-12T18:43:35.066Z,1.30
2023-04-12T18:46:03.299Z,1.20
2023-04-12T18:48:31.518Z,1.40
2023-04-12T18:50:59.983Z,1.27
2023-04-12T18:53:28.279Z,1.60
2023-04-12T18:55:57.702Z,2.00
2023-04-12T18:58:33.045Z,1.97
2023-04-12T19:01:14.544Z,1.60
2023-04-12T19:03:42.905Z,1.80
2023-04-12T19:06:12.656Z,1.93
2023-04-12T19:08:42.531Z,2.00
2023-04-12T19:11:11.245Z,1.87
2023-04-12T19:13:40.884Z,1.60
2023-04-12T19:16:09.261Z,1.90
2023-04-12T19:18:37.581Z,1.60
2023-04-12T19:21:06.629Z,1.27
2023-04-12T19:23:34.933Z,1.20
2023-04-12T19:26:05.550Z,1.83
2023-04-12T19:28:33.786Z,1.30
2023-04-12T19:31:06.327Z,1.40
2023-04-12T19:33:35.387Z,1.43
2023-04-12T19:36:03.620Z,1.27
2023-04-12T19:38:31.896Z,1.33
2023-04-12T19:41:00.185Z,1.20
2023-04-12T19:43:28.465Z,1.57
2023-04-12T19:45:57.662Z,1.57
2023-04-12T19:48:27.293Z,1.70
2023-04-12T19:50:56.606Z,1.10
2023-04-12T19:53:24.901Z,1.57
2023-04-12T19:55:53.416Z,1.77
2023-04-12T19:58:21.633Z,1.37
2023-04-12T20:00:53.107Z,1.53
2023-04-12T20:03:21.715Z,1.70
2023-04-12T20:05:51.495Z,1.27
2023-04-12T20:08:19.662Z,1.20
2023-04-12T20:10:48.203Z,1.27
2023-04-12T20:13:16.380Z,1.30
2023-04-12T20:15:44.608Z,1.30
2023-04-12T20:18:13.518Z,1.30
2023-04-12T20:20:45.065Z,1.30
2023-04-12T20:23:15.163Z,0.90
2023-04-12T20:25:48.742Z,1.17
2023-04-12T20:28:17.083Z,1.30
2023-04-12T20:30:47.990Z,1.30
2023-04-12T20:33:17.025Z,1.13
2023-04-12T20:35:45.201Z,1.40
2023-04-12T20:38:15.171Z,1.33
2023-04-12T20:40:43.450Z,0.97
2023-04-12T20:43:11.769Z,1.00
2023-04-12T20:45:40.544Z,1.23
2023-04-12T20:48:09.723Z,1.00
2023-04-12T20:50:38.661Z,1.10
2023-04-12T20:53:06.877Z,0.90
2023-04-12T20:55:36.693Z,1.20
2023-04-12T20:58:06.920Z,1.33
2023-04-12T21:00:37.408Z,0.93
2023-04-12T21:05:52.695Z,0.90
2023-04-12T21:08:21.107Z,1.30
2023-04-12T21:10:50.861Z,1.30
2023-04-12T21:13:22.687Z,1.10
2023-04-12T21:15:52.428Z,1.20
2023-04-12T21:18:21.193Z,1.10
2023-04-12T21:20:49.521Z,1.00
2023-04-12T21:23:18.140Z,0.93
2023-04-12T21:25:46.716Z,1.10
2023-04-12T21:28:17.046Z,1.13
2023-04-12T21:30:46.282Z,1.07
2023-04-12T21:33:16.468Z,1.20
2023-04-12T21:35:45.297Z,1.43
2023-04-12T21:38:13.681Z,1.50
2023-04-12T21:40:42.283Z,1.97
2023-04-12T21:43:10.702Z,2.00
2023-04-12T21:45:40.589Z,2.20
2023-04-12T21:48:09.153Z,2.20
2023-04-12T21:50:37.656Z,1.40
2023-04-12T21:53:05.977Z,1.40
2023-04-12T21:55:34.842Z,1.20
2023-04-12T21:58:03.576Z,1.40
2023-04-12T22:00:32.165Z,1.60
2023-04-12T22:03:02.413Z,1.50
2023-04-12T22:05:30.904Z,1.50
2023-04-12T22:07:59.522Z,1.40
2023-04-12T22:10:27.779Z,1.30
2023-04-12T22:12:55.971Z,1.40
2023-04-12T22:15:24.585Z,1.40
2023-04-12T22:17:52.828Z,1.00
2023-04-12T22:20:22.509Z,1.30
2023-04-12T22:22:50.744Z,1.47
2023-04-12T22:25:19.903Z,1.40
2023-04-12T22:27:48.673Z,1.10
2023-04-12T22:30:16.992Z,1.33
2023-04-12T22:32:45.276Z,1.73
2023-04-12T22:35:13.561Z,1.93
2023-04-12T22:37:43.288Z,1.70
2023-04-12T22:40:13.446Z,1.47
2023-04-12T22:42:46.208Z,1.23
2023-04-12T22:45:15.299Z,1.40
2023-04-12T22:47:43.815Z,1.80
2023-04-12T22:50:12.762Z,1.83
2023-04-12T22:52:42.649Z,1.90
2023-04-12T22:55:12.710Z,2.10
2023-04-12T22:57:41.016Z,2.20
2023-04-12T23:00:15.777Z,1.90
2023-04-12T23:02:45.909Z,2.10
2023-04-12T23:05:14.572Z,1.83
2023-04-12T23:07:44.197Z,1.50
2023-04-12T23:10:12.622Z,1.20
2023-04-12T23:12:40.879Z,1.30
2023-04-12T23:15:09.738Z,1.60
2023-04-12T23:17:38.032Z,1.40
2023-04-12T23:20:09.951Z,1.43
2023-04-12T23:22:56.731Z,2.40
2023-04-12T23:25:38.927Z,1.97
2023-04-12T23:28:13.539Z,1.70
2023-04-12T23:30:43.781Z,1.60
2023-04-12T23:33:13.042Z,1.50
2023-04-12T23:35:41.886Z,1.50
2023-04-12T23:38:15.730Z,1.50
2023-04-12T23:40:45.477Z,1.87
2023-04-12T23:43:13.757Z,1.97
2023-04-12T23:45:42.078Z,2.43
2023-04-12T23:48:10.301Z,1.90
2023-04-12T23:50:39.054Z,2.13
2023-04-12T23:53:08.045Z,2.43
2023-04-12T23:55:36.315Z,2.10
2023-04-12T23:58:05.989Z,2.30
